Time;durP1;ratioP1;P1;durP2;ratioP2;P2;SDS_P1;SDS_P2;PMS_P1;PMS_P2;Temp;Humidity;BMP_temperature;BMP_pressure;BME280_temperature;BME280_humidity;BME280_pressure;Samples;Min_cycle;Max_cycle;Signal;HPM_P1;HPM_P2
2021/06/16 00:02:18;;;;;;;9.95;5.47;;;;;;;;;;5093433;28;20499;-46
2021/06/16 00:04:44;;;;;;;12.60;6.38;;;;;;;;;;5093586;28;20024;-45
2021/06/16 00:07:11;;;;;;;14.18;8.13;;;;;;;;;;5093400;28;20523;-45
2021/06/16 00:09:37;;;;;;;11.52;7.03;;;;;;;;;;5093397;28;20155;-46
2021/06/16 00:12:03;;;;;;;9.82;4.68;;;;;;;;;;5093337;28;20028;-45
2021/06/16 00:14:31;;;;;;;18.17;11.63;;;;;;;;;;5091787;28;20055;-46
2021/06/16 00:16:57;;;;;;;12.88;8.07;;;;;;;;;;5093278;28;20517;-45
2021/06/16 00:19:24;;;;;;;8.27;5.25;;;;;;;;;;5093308;28;20073;-46
2021/06/16 00:21:50;;;;;;;4.82;3.28;;;;;;;;;;5093304;28;20422;-46
2021/06/16 00:24:19;;;;;;;6.68;4.22;;;;;;;;;;5093255;28;20035;-46
2021/06/16 00:26:45;;;;;;;7.93;3.72;;;;;;;;;;5093124;28;20059;-45
2021/06/16 00:29:11;;;;;;;6.22;3.30;;;;;;;;;;5093052;28;20035;-46
2021/06/16 00:31:37;;;;;;;3.85;2.80;;;;;;;;;;5093226;28;20072;-46
2021/06/16 00:34:03;;;;;;;7.97;4.50;;;;;;;;;;5093297;28;20099;-47
2021/06/16 00:36:30;;;;;;;6.05;4.65;;;;;;;;;;5093133;28;20491;-46
2021/06/16 00:38:58;;;;;;;11.98;6.40;;;;;;;;;;5093004;28;20064;-44
2021/06/16 00:41:24;;;;;;;9.57;5.30;;;;;;;;;;5093172;28;20024;-45
2021/06/16 00:43:50;;;;;;;13.27;6.95;;;;;;;;;;5092809;28;20043;-46
2021/06/16 00:46:17;;;;;;;11.00;6.30;;;;;;;;;;5093224;28;20027;-45
2021/06/16 00:48:43;;;;;;;6.78;3.38;;;;;;;;;;5092975;28;20526;-46
2021/06/16 00:51:09;;;;;;;11.80;6.43;;;;;;;;;;5094397;28;20460;-44
2021/06/16 00:53:35;;;;;;;7.55;4.85;;;;;;;;;;5097202;28;20054;-45
2021/06/16 00:56:01;;;;;;;19.92;11.65;;;;;;;;;;5097155;28;20016;-45
2021/06/16 00:58:27;;;;;;;8.80;4.53;;;;;;;;;;5096938;28;20036;-47
2021/06/16 01:01:00;;;;;;;5.70;3.70;;;;;;;;;;5097279;28;20024;-46
2021/06/16 01:03:28;;;;;;;5.35;3.80;;;;;;;;;;5096912;28;20028;-46
2021/06/16 01:06:04;;;;;;;4.38;3.30;;;;;;;;;;5096952;28;20119;-45
2021/06/16 01:08:33;;;;;;;6.18;3.35;;;;;;;;;;5096722;28;20036;-46
2021/06/16 01:11:01;;;;;;;8.63;4.40;;;;;;;;;;5096738;28;20028;-45
2021/06/16 01:13:32;;;;;;;8.20;4.35;;;;;;;;;;5096605;28;20044;-46
2021/06/16 01:15:58;;;;;;;5.72;3.92;;;;;;;;;;5096891;28;20050;-45
2021/06/16 01:18:25;;;;;;;7.60;4.82;;;;;;;;;;5096975;28;20024;-46
2021/06/16 01:20:54;;;;;;;5.80;4.38;;;;;;;;;;5096714;28;20026;-47
2021/06/16 01:23:26;;;;;;;5.95;4.60;;;;;;;;;;5096963;28;20486;-47
2021/06/16 01:26:01;;;;;;;6.00;4.20;;;;;;;;;;5096454;28;20131;-46
2021/06/16 01:28:38;;;;;;;8.68;4.03;;;;;;;;;;5096530;28;20040;-45
2021/06/16 01:31:05;;;;;;;5.30;3.72;;;;;;;;;;5096577;28;20472;-46
2021/06/16 01:33:31;;;;;;;8.48;6.10;;;;;;;;;;5096324;28;20440;-45
2021/06/16 01:35:58;;;;;;;45.05;30.45;;;;;;;;;;5096480;28;20153;-46
2021/06/16 01:38:24;;;;;;;16.02;10.00;;;;;;;;;;5096316;28;20506;-46
2021/06/16 01:40:53;;;;;;;9.80;6.18;;;;;;;;;;5096455;28;20035;-46
2021/06/16 01:43:19;;;;;;;25.75;16.00;;;;;;;;;;5096120;28;20484;-46
2021/06/16 01:45:46;;;;;;;15.27;10.43;;;;;;;;;;5096226;28;20108;-46
2021/06/16 01:48:21;;;;;;;14.70;10.68;;;;;;;;;;5096073;28;20036;-47
2021/06/16 01:50:49;;;;;;;9.68;6.47;;;;;;;;;;5096143;28;20032;-46
2021/06/16 01:53:16;;;;;;;13.82;8.70;;;;;;;;;;5096065;28;20050;-46
2021/06/16 01:55:42;;;;;;;12.18;6.90;;;;;;;;;;5095965;28;20564;-47
2021/06/16 01:58:09;;;;;;;7.80;5.07;;;;;;;;;;5095983;28;20035;-45
2021/06/16 02:00:36;;;;;;;8.80;4.82;;;;;;;;;;5096212;28;20045;-46
2021/06/16 02:03:02;;;;;;;8.13;4.80;;;;;;;;;;5094599;28;20032;-45
2021/06/16 02:05:29;;;;;;;8.23;5.75;;;;;;;;;;5095904;28;20101;-46
2021/06/16 02:08:06;;;;;;;7.40;4.90;;;;;;;;;;5094369;28;20119;-47
2021/06/16 02:10:34;;;;;;;8.88;5.25;;;;;;;;;;5095868;28;20031;-46
2021/06/16 02:13:02;;;;;;;9.60;5.93;;;;;;;;;;5095590;28;20317;-45
2021/06/16 02:15:46;;;;;;;6.20;4.20;;;;;;;;;;5095623;28;20074;-45
2021/06/16 02:18:13;;;;;;;9.90;4.97;;;;;;;;;;5095328;28;20039;-45
2021/06/16 02:20:40;;;;;;;6.68;4.60;;;;;;;;;;5095717;28;20020;-46
2021/06/16 02:23:06;;;;;;;6.30;4.25;;;;;;;;;;5095674;28;20031;-46
2021/06/16 02:25:32;;;;;;;6.57;4.55;;;;;;;;;;5095724;28;20016;-45
2021/06/16 02:27:59;;;;;;;5.82;3.65;;;;;;;;;;5095420;28;20395;-44
2021/06/16 02:30:25;;;;;;;5.35;4.05;;;;;;;;;;5095367;28;20031;-45
2021/06/16 02:32:51;;;;;;;5.75;4.15;;;;;;;;;;5095194;28;20085;-46
2021/06/16 02:35:19;;;;;;;4.72;3.47;;;;;;;;;;5095438;28;20515;-46
2021/06/16 02:37:50;;;;;;;9.80;5.75;;;;;;;;;;5095340;28;20028;-46
2021/06/16 02:40:17;;;;;;;22.17;13.05;;;;;;;;;;5095483;28;20077;-46
2021/06/16 02:42:45;;;;;;;22.52;13.25;;;;;;;;;;5095276;28;20820;-45
2021/06/16 02:45:12;;;;;;;8.18;5.63;;;;;;;;;;5095090;28;20032;-46
2021/06/16 02:47:39;;;;;;;8.57;5.45;;;;;;;;;;5095009;28;20059;-46
2021/06/16 02:50:06;;;;;;;8.15;4.40;;;;;;;;;;5094981;28;20095;-46
2021/06/16 02:52:33;;;;;;;8.10;3.92;;;;;;;;;;5094838;28;20036;-47
2021/06/16 02:55:02;;;;;;;6.97;4.82;;;;;;;;;;5095001;28;20031;-46
2021/06/16 02:57:29;;;;;;;5.70;3.70;;;;;;;;;;5094980;28;20020;-46
2021/06/16 02:59:56;;;;;;;4.90;3.47;;;;;;;;;;5095164;28;20020;-46
2021/06/16 03:02:23;;;;;;;5.22;4.10;;;;;;;;;;5094589;28;20031;-46
2021/06/16 03:04:50;;;;;;;4.60;3.22;;;;;;;;;;5094930;28;20383;-46
2021/06/16 03:07:17;;;;;;;5.82;3.60;;;;;;;;;;5094802;28;20091;-46
2021/06/16 03:09:47;;;;;;;8.40;3.80;;;;;;;;;;5094689;28;20194;-45
2021/06/16 03:12:14;;;;;;;7.57;3.38;;;;;;;;;;5094543;28;20016;-46
2021/06/16 03:14:40;;;;;;;6.85;3.60;;;;;;;;;;5093772;28;20086;-48
2021/06/16 03:17:07;;;;;;;5.47;3.80;;;;;;;;;;5094403;28;20024;-47
2021/06/16 03:19:34;;;;;;;4.97;3.40;;;;;;;;;;5094485;28;20051;-47
2021/06/16 03:22:03;;;;;;;7.22;3.80;;;;;;;;;;5094465;28;20051;-46
2021/06/16 03:24:29;;;;;;;6.75;3.72;;;;;;;;;;5094470;28;20093;-46
2021/06/16 03:26:56;;;;;;;4.25;3.00;;;;;;;;;;5094276;28;20468;-46
2021/06/16 03:29:22;;;;;;;8.85;4.03;;;;;;;;;;5094189;28;20024;-47
2021/06/16 03:31:48;;;;;;;7.43;3.10;;;;;;;;;;5094010;28;20483;-47
2021/06/16 03:34:15;;;;;;;7.85;3.63;;;;;;;;;;5094105;28;20032;-46
2021/06/16 03:36:45;;;;;;;6.95;3.40;;;;;;;;;;5094140;28;20094;-46
2021/06/16 03:39:13;;;;;;;6.72;3.78;;;;;;;;;;5094232;28;20020;-46
2021/06/16 03:41:40;;;;;;;8.50;3.60;;;;;;;;;;5094122;28;20061;-45
2021/06/16 03:44:06;;;;;;;5.57;3.47;;;;;;;;;;5093830;28;20031;-46
2021/06/16 03:46:36;;;;;;;6.25;3.25;;;;;;;;;;5093840;28;20051;-45
2021/06/16 03:49:06;;;;;;;6.13;3.60;;;;;;;;;;5093912;28;20056;-46
2021/06/16 03:51:34;;;;;;;5.57;3.45;;;;;;;;;;5093953;28;20021;-46
2021/06/16 03:54:01;;;;;;;4.68;3.25;;;;;;;;;;5093763;28;20055;-45
2021/06/16 03:56:28;;;;;;;5.55;3.00;;;;;;;;;;5093767;28;20032;-44
2021/06/16 03:58:54;;;;;;;6.55;3.38;;;;;;;;;;5093682;28;20024;-44
2021/06/16 04:01:21;;;;;;;4.18;3.17;;;;;;;;;;5093577;28;20084;-45
2021/06/16 04:03:47;;;;;;;7.25;3.78;;;;;;;;;;5093665;28;20476;-45
2021/06/16 04:06:14;;;;;;;4.78;3.40;;;;;;;;;;5093549;28;20028;-45
2021/06/16 04:08:41;;;;;;;6.07;3.40;;;;;;;;;;5093561;28;20028;-45
2021/06/16 04:11:07;;;;;;;4.13;3.35;;;;;;;;;;5093516;28;20031;-45
2021/06/16 04:13:33;;;;;;;7.13;3.70;;;;;;;;;;5093302;28;20063;-47
2021/06/16 04:16:01;;;;;;;7.72;3.83;;;;;;;;;;5093194;28;20056;-48
2021/06/16 04:18:30;;;;;;;7.47;3.78;;;;;;;;;;5093431;28;20556;-48
2021/06/16 04:20:56;;;;;;;6.35;3.92;;;;;;;;;;5093384;28;20514;-47
2021/06/16 04:23:22;;;;;;;6.43;3.78;;;;;;;;;;5093341;28;20027;-46
2021/06/16 04:25:48;;;;;;;6.35;3.80;;;;;;;;;;5092198;28;20024;-46
2021/06/16 04:28:14;;;;;;;6.00;3.47;;;;;;;;;;5093246;28;20130;-46
2021/06/16 04:30:40;;;;;;;6.22;3.58;;;;;;;;;;5093401;28;20024;-49
2021/06/16 04:33:07;;;;;;;7.40;3.45;;;;;;;;;;5093073;28;20054;-47
2021/06/16 04:35:33;;;;;;;8.70;6.53;;;;;;;;;;5093171;28;20032;-47
2021/06/16 04:38:00;;;;;;;6.45;3.92;;;;;;;;;;5091756;28;20032;-45
2021/06/16 04:40:26;;;;;;;16.02;9.88;;;;;;;;;;5093200;28;20020;-46
2021/06/16 04:42:54;;;;;;;7.20;5.30;;;;;;;;;;5092972;28;20092;-46
2021/06/16 04:45:20;;;;;;;5.80;3.50;;;;;;;;;;5092963;28;20052;-47
2021/06/16 04:47:46;;;;;;;7.45;3.90;;;;;;;;;;5092997;28;20449;-49
2021/06/16 04:50:13;;;;;;;5.28;3.60;;;;;;;;;;5092878;28;20024;-46
2021/06/16 04:52:39;;;;;;;6.40;3.97;;;;;;;;;;5093049;28;20024;-46
2021/06/16 04:55:07;;;;;;;7.28;3.10;;;;;;;;;;5092924;28;20468;-47
2021/06/16 04:57:33;;;;;;;5.88;3.70;;;;;;;;;;5092972;28;20028;-47
2021/06/16 04:59:59;;;;;;;8.10;3.72;;;;;;;;;;5092759;28;20077;-46
2021/06/16 05:02:25;;;;;;;6.40;3.75;;;;;;;;;;5093029;28;20164;-49
2021/06/16 05:04:51;;;;;;;8.25;4.07;;;;;;;;;;5092642;28;20024;-47
2021/06/16 05:07:17;;;;;;;7.88;4.40;;;;;;;;;;5092817;28;20054;-47
2021/06/16 05:09:43;;;;;;;10.50;7.13;;;;;;;;;;5092810;28;20111;-47
2021/06/16 05:12:09;;;;;;;9.60;5.85;;;;;;;;;;5092871;28;20016;-47
2021/06/16 05:14:36;;;;;;;8.85;5.70;;;;;;;;;;5092411;28;20376;-46
2021/06/16 05:17:02;;;;;;;7.32;4.10;;;;;;;;;;5092857;28;20064;-46
2021/06/16 05:19:28;;;;;;;8.10;4.65;;;;;;;;;;5092647;28;20032;-47
2021/06/16 05:21:54;;;;;;;7.63;3.92;;;;;;;;;;5092580;28;20031;-47
2021/06/16 05:24:20;;;;;;;6.35;3.65;;;;;;;;;;5092700;28;20028;-47
2021/06/16 05:26:47;;;;;;;7.68;3.33;;;;;;;;;;5092550;28;20024;-46
2021/06/16 05:29:13;;;;;;;4.30;3.35;;;;;;;;;;5092350;28;20032;-52
2021/06/16 05:31:39;;;;;;;6.70;4.85;;;;;;;;;;5092441;28;20373;-53
2021/06/16 05:34:05;;;;;;;16.13;8.68;;;;;;;;;;5092723;28;20447;-52
2021/06/16 05:36:32;;;;;;;17.52;10.35;;;;;;;;;;5092751;28;20030;-53
2021/06/16 05:38:59;;;;;;;20.30;13.70;;;;;;;;;;5096424;28;20031;-53
2021/06/16 05:41:25;;;;;;;31.05;19.27;;;;;;;;;;5096366;28;20099;-53
2021/06/16 05:43:51;;;;;;;8.95;6.13;;;;;;;;;;5096113;28;20027;-49
2021/06/16 05:46:17;;;;;;;12.77;8.98;;;;;;;;;;5096156;28;20039;-51
2021/06/16 05:48:44;;;;;;;33.08;21.55;;;;;;;;;;5096352;28;20062;-52
2021/06/16 05:51:12;;;;;;;18.98;12.82;;;;;;;;;;5096247;28;20061;-52
2021/06/16 05:53:38;;;;;;;33.42;19.20;;;;;;;;;;5096209;28;20027;-52
2021/06/16 05:56:06;;;;;;;37.08;20.65;;;;;;;;;;5096084;28;20361;-53
2021/06/16 05:58:32;;;;;;;50.50;31.00;;;;;;;;;;5096006;28;20012;-52
2021/06/16 06:00:58;;;;;;;23.10;15.68;;;;;;;;;;5095835;28;20016;-53
2021/06/16 06:03:24;;;;;;;18.15;12.40;;;;;;;;;;5095745;28;20464;-50
2021/06/16 06:05:50;;;;;;;34.58;22.83;;;;;;;;;;5095864;28;20020;-53
2021/06/16 06:08:17;;;;;;;19.95;12.50;;;;;;;;;;5095787;28;20036;-52
2021/06/16 06:10:43;;;;;;;20.58;12.13;;;;;;;;;;5095712;28;20467;-52
2021/06/16 06:13:09;;;;;;;104.85;63.33;;;;;;;;;;5095502;28;20042;-53
2021/06/16 06:15:35;;;;;;;15.32;10.35;;;;;;;;;;5095679;28;20102;-53
2021/06/16 06:18:01;;;;;;;19.00;12.40;;;;;;;;;;5095520;28;20024;-53
2021/06/16 06:20:27;;;;;;;10.27;5.00;;;;;;;;;;5095574;28;20255;-53
2021/06/16 06:22:56;;;;;;;12.75;5.20;;;;;;;;;;5095420;28;20020;-52
2021/06/16 06:25:22;;;;;;;26.95;15.48;;;;;;;;;;5095417;28;20028;-53
2021/06/16 06:27:48;;;;;;;26.67;17.30;;;;;;;;;;5095373;28;20039;-52
2021/06/16 06:30:14;;;;;;;34.75;22.08;;;;;;;;;;5095541;28;20062;-53
2021/06/16 06:32:40;;;;;;;10.52;6.78;;;;;;;;;;5095468;28;20107;-54
2021/06/16 06:35:06;;;;;;;66.38;43.38;;;;;;;;;;5095204;28;20103;-55
2021/06/16 06:37:32;;;;;;;21.35;13.40;;;;;;;;;;5095534;28;20391;-55
2021/06/16 06:40:01;;;;;;;18.85;9.93;;;;;;;;;;5095532;28;20104;-53
2021/06/16 06:42:28;;;;;;;15.43;10.25;;;;;;;;;;5095574;28;20103;-50
2021/06/16 06:44:54;;;;;;;20.05;12.77;;;;;;;;;;5095053;28;20023;-53
2021/06/16 06:47:21;;;;;;;38.50;22.23;;;;;;;;;;5095079;28;20107;-53
2021/06/16 06:49:47;;;;;;;30.38;19.30;;;;;;;;;;5094040;28;20035;-51
2021/06/16 06:52:14;;;;;;;52.10;34.10;;;;;;;;;;5094846;28;20016;-50
2021/06/16 06:54:40;;;;;;;20.40;13.55;;;;;;;;;;5094877;28;20056;-53
2021/06/16 06:57:06;;;;;;;60.92;38.15;;;;;;;;;;5095040;28;20024;-52
2021/06/16 06:59:32;;;;;;;15.35;8.98;;;;;;;;;;5094875;28;20024;-53
2021/06/16 07:01:59;;;;;;;58.53;37.63;;;;;;;;;;5094664;28;20119;-53
2021/06/16 07:04:26;;;;;;;15.82;8.63;;;;;;;;;;5094876;28;20043;-53
2021/06/16 07:06:52;;;;;;;12.93;9.50;;;;;;;;;;5094760;28;20159;-51
2021/06/16 07:09:19;;;;;;;29.17;17.20;;;;;;;;;;5094834;28;20092;-54
2021/06/16 07:11:45;;;;;;;90.38;58.13;;;;;;;;;;5094860;28;20403;-54
2021/06/16 07:14:11;;;;;;;8.30;5.70;;;;;;;;;;5094461;28;20048;-51
2021/06/16 07:16:38;;;;;;;34.22;20.00;;;;;;;;;;5094381;28;20126;-53
2021/06/16 07:19:04;;;;;;;65.93;41.95;;;;;;;;;;5094462;28;20103;-45
2021/06/16 07:21:30;;;;;;;48.78;31.20;;;;;;;;;;5094473;28;20024;-53
2021/06/16 07:23:56;;;;;;;30.95;18.40;;;;;;;;;;5094296;28;20020;-50
2021/06/16 07:26:22;;;;;;;19.10;12.35;;;;;;;;;;5094453;28;20012;-49
2021/06/16 07:28:48;;;;;;;46.00;31.00;;;;;;;;;;5094185;28;20036;-53
2021/06/16 07:31:14;;;;;;;33.47;22.73;;;;;;;;;;5094065;28;20017;-52
2021/06/16 07:33:40;;;;;;;12.65;9.15;;;;;;;;;;5094138;28;20099;-52
2021/06/16 07:36:07;;;;;;;39.15;25.73;;;;;;;;;;5094297;28;20425;-54
2021/06/16 07:38:33;;;;;;;6.63;4.32;;;;;;;;;;5094051;28;20114;-51
2021/06/16 07:41:01;;;;;;;25.42;15.82;;;;;;;;;;5094035;28;20082;-52
2021/06/16 07:43:27;;;;;;;12.40;8.02;;;;;;;;;;5094012;28;20069;-50
2021/06/16 07:45:55;;;;;;;22.00;14.70;;;;;;;;;;5077608;28;20020;-52
2021/06/16 07:48:21;;;;;;;21.25;14.43;;;;;;;;;;5073078;28;20046;-53
2021/06/16 07:50:48;;;;;;;32.95;20.90;;;;;;;;;;5073010;28;20028;-52
2021/06/16 07:53:14;;;;;;;59.95;39.53;;;;;;;;;;5073283;28;20025;-48
2021/06/16 07:55:40;;;;;;;30.98;19.00;;;;;;;;;;5073469;28;20025;-52
2021/06/16 07:58:07;;;;;;;77.72;50.75;;;;;;;;;;5073248;28;20025;-51
2021/06/16 08:00:34;;;;;;;20.40;15.25;;;;;;;;;;5073175;28;20542;-50
2021/06/16 08:03:00;;;;;;;15.55;9.43;;;;;;;;;;5073302;28;20035;-50
2021/06/16 08:05:26;;;;;;;29.67;19.27;;;;;;;;;;5073191;28;20111;-43
2021/06/16 08:07:52;;;;;;;33.03;16.83;;;;;;;;;;5072995;28;20046;-43
2021/06/16 08:10:18;;;;;;;33.63;18.88;;;;;;;;;;5073317;28;20020;-50
2021/06/16 08:12:44;;;;;;;38.58;27.65;;;;;;;;;;5073114;28;20481;-45
2021/06/16 08:15:11;;;;;;;11.23;7.00;;;;;;;;;;5072917;28;20045;-51
2021/06/16 08:17:37;;;;;;;13.68;9.23;;;;;;;;;;5073232;28;20024;-47
2021/06/16 08:20:04;;;;;;;34.47;22.35;;;;;;;;;;5072922;28;20024;-47
2021/06/16 08:22:30;;;;;;;12.98;6.68;;;;;;;;;;5073083;28;20031;-44
2021/06/16 08:25:00;;;;;;;53.67;26.98;;;;;;;;;;5073288;28;20052;-44
2021/06/16 08:27:26;;;;;;;32.75;15.45;;;;;;;;;;5073121;28;20060;-50
2021/06/16 08:29:52;;;;;;;7.72;4.00;;;;;;;;;;5073135;28;20433;-48
2021/06/16 08:32:18;;;;;;;24.42;11.88;;;;;;;;;;5073030;28;20086;-47
2021/06/16 08:34:44;;;;;;;6.25;3.47;;;;;;;;;;5072896;28;20480;-49
2021/06/16 08:37:10;;;;;;;13.70;3.92;;;;;;;;;;5073299;28;20021;-50
2021/06/16 08:39:37;;;;;;;20.52;8.80;;;;;;;;;;5073078;28;20036;-43
2021/06/16 08:42:03;;;;;;;28.80;14.27;;;;;;;;;;5073346;28;20445;-50
2021/06/16 08:44:31;;;;;;;34.90;18.75;;;;;;;;;;5072748;28;20078;-44
2021/06/16 08:46:57;;;;;;;6.22;4.22;;;;;;;;;;5073491;28;20338;-47
2021/06/16 08:49:23;;;;;;;13.23;8.15;;;;;;;;;;5072841;28;20033;-48
2021/06/16 08:51:51;;;;;;;51.20;31.25;;;;;;;;;;5073077;28;20050;-48
2021/06/16 08:54:18;;;;;;;10.73;6.38;;;;;;;;;;5073001;28;20024;-50
2021/06/16 08:56:44;;;;;;;10.73;6.95;;;;;;;;;;5073126;28;20020;-49
2021/06/16 08:59:10;;;;;;;8.20;5.90;;;;;;;;;;5072807;28;20024;-46
2021/06/16 09:01:37;;;;;;;5.57;3.55;;;;;;;;;;5072831;28;20032;-49
2021/06/16 09:04:03;;;;;;;24.05;16.63;;;;;;;;;;5072837;28;20484;-49
2021/06/16 09:06:30;;;;;;;18.33;12.02;;;;;;;;;;5072849;28;20376;-52
2021/06/16 09:09:02;;;;;;;39.83;23.45;;;;;;;;;;5073043;28;20035;-48
2021/06/16 09:11:30;;;;;;;38.53;23.80;;;;;;;;;;5073080;28;20077;-49
2021/06/16 09:14:14;;;;;;;19.52;12.70;;;;;;;;;;5076867;28;20087;-50
2021/06/16 09:16:41;;;;;;;12.70;5.82;;;;;;;;;;5076885;28;20070;-51
2021/06/16 09:19:36;;;;;;;10.27;6.80;;;;;;;;;;5075344;28;20381;-50
2021/06/16 09:22:06;;;;;;;17.63;11.32;;;;;;;;;;5076596;28;20107;-51
2021/06/16 09:24:45;;;;;;;8.43;6.05;;;;;;;;;;5076343;28;20024;-50
2021/06/16 09:27:11;;;;;;;11.13;7.45;;;;;;;;;;5076199;28;20028;-49
2021/06/16 09:29:37;;;;;;;5.60;3.80;;;;;;;;;;5076411;28;20025;-50
2021/06/16 09:32:04;;;;;;;27.08;17.60;;;;;;;;;;5076246;28;20372;-50
2021/06/16 09:34:30;;;;;;;68.32;41.85;;;;;;;;;;5076286;28;20082;-50
2021/06/16 09:36:57;;;;;;;10.73;6.40;;;;;;;;;;5076090;28;20062;-50
2021/06/16 09:39:24;;;;;;;13.23;8.43;;;;;;;;;;5075881;28;20450;-49
2021/06/16 09:41:54;;;;;;;36.25;23.50;;;;;;;;;;5076303;28;20368;-48
2021/06/16 09:44:39;;;;;;;21.30;13.73;;;;;;;;;;5075929;28;20035;-48
2021/06/16 09:47:12;;;;;;;22.50;15.43;;;;;;;;;;5076391;28;20254;-49
2021/06/16 09:49:49;;;;;;;11.77;7.63;;;;;;;;;;5075783;28;20032;-50
2021/06/16 09:52:28;;;;;;;9.45;5.65;;;;;;;;;;5075858;28;20023;-50
2021/06/16 09:54:54;;;;;;;3.65;2.60;;;;;;;;;;5075753;28;20028;-48
2021/06/16 09:57:20;;;;;;;16.25;9.73;;;;;;;;;;5076324;28;20468;-48
2021/06/16 09:59:46;;;;;;;27.85;17.23;;;;;;;;;;5075961;28;20063;-50
2021/06/16 10:02:23;;;;;;;3.03;2.13;;;;;;;;;;5075588;28;20017;-49
2021/06/16 10:04:59;;;;;;;14.40;9.60;;;;;;;;;;5075598;28;20483;-49
2021/06/16 10:07:25;;;;;;;25.13;14.07;;;;;;;;;;5075674;28;20078;-49
2021/06/16 10:09:52;;;;;;;22.10;13.90;;;;;;;;;;5075592;28;20090;-49
2021/06/16 10:12:20;;;;;;;17.58;9.93;;;;;;;;;;5075535;28;20024;-49
2021/06/16 10:14:46;;;;;;;4.45;2.92;;;;;;;;;;5075261;28;20044;-45
2021/06/16 10:17:15;;;;;;;10.25;6.63;;;;;;;;;;5075598;28;20021;-50
2021/06/16 10:19:42;;;;;;;8.40;5.10;;;;;;;;;;5075536;28;20100;-50
2021/06/16 10:22:08;;;;;;;10.75;5.25;;;;;;;;;;5075516;28;20452;-50
2021/06/16 10:24:34;;;;;;;4.75;2.85;;;;;;;;;;5074038;28;20094;-51
2021/06/16 10:27:01;;;;;;;9.15;6.00;;;;;;;;;;5075153;28;20369;-49
2021/06/16 10:29:29;;;;;;;2.45;1.52;;;;;;;;;;5075265;28;20112;-50
2021/06/16 10:32:02;;;;;;;3.15;2.08;;;;;;;;;;5075259;28;20051;-49
2021/06/16 10:34:48;;;;;;;1.80;1.55;;;;;;;;;;5075087;28;20021;-51
2021/06/16 10:37:24;;;;;;;4.22;2.70;;;;;;;;;;5075183;28;20103;-51
2021/06/16 10:40:08;;;;;;;5.38;3.53;;;;;;;;;;5075100;28;20362;-49
2021/06/16 10:42:53;;;;;;;9.82;6.60;;;;;;;;;;5075050;28;20024;-50
2021/06/16 10:45:21;;;;;;;8.50;5.25;;;;;;;;;;5075086;28;20063;-49
2021/06/16 10:47:57;;;;;;;7.85;5.43;;;;;;;;;;5075242;28;20020;-52
2021/06/16 10:50:44;;;;;;;9.68;4.93;;;;;;;;;;5073665;28;20055;-49
2021/06/16 10:53:10;;;;;;;6.43;3.95;;;;;;;;;;5074785;28;20044;-51
2021/06/16 10:55:54;;;;;;;10.52;6.28;;;;;;;;;;5074963;28;20544;-51
2021/06/16 10:58:21;;;;;;;19.15;9.68;;;;;;;;;;5074678;28;20120;-50
2021/06/16 11:01:13;;;;;;;23.25;11.45;;;;;;;;;;5074615;28;20520;-50
2021/06/16 11:03:50;;;;;;;10.75;7.47;;;;;;;;;;5074572;28;20523;-48
2021/06/16 11:06:37;;;;;;;6.65;5.28;;;;;;;;;;5074305;28;20029;-48
2021/06/16 11:09:03;;;;;;;8.00;3.47;;;;;;;;;;5074438;28;20036;-48
2021/06/16 11:12:04;;;;;;;5.50;2.70;;;;;;;;;;5074486;28;20097;-49
2021/06/16 11:14:36;;;;;;;5.45;3.40;;;;;;;;;;5074059;28;20143;-49
2021/06/16 11:17:08;;;;;;;4.50;1.90;;;;;;;;;;5074373;28;20452;-51
2021/06/16 11:19:37;;;;;;;4.72;2.97;;;;;;;;;;5073284;28;20031;-47
2021/06/16 11:22:05;;;;;;;10.13;7.35;;;;;;;;;;5074307;28;20024;-50
2021/06/16 11:24:50;;;;;;;13.27;9.05;;;;;;;;;;5074372;28;20414;-52
2021/06/16 11:27:36;;;;;;;12.25;6.68;;;;;;;;;;5074379;28;20029;-51
2021/06/16 11:30:08;;;;;;;3.95;3.08;;;;;;;;;;5072078;28;20045;-51
2021/06/16 11:32:34;;;;;;;3.95;2.97;;;;;;;;;;5072127;28;20032;-51
2021/06/16 11:35:00;;;;;;;4.72;2.95;;;;;;;;;;5071403;28;20344;-51
2021/06/16 11:37:44;;;;;;;4.45;3.13;;;;;;;;;;5071989;28;20029;-50
2021/06/16 11:40:10;;;;;;;2.47;1.50;;;;;;;;;;5071690;28;20044;-49
2021/06/16 11:42:39;;;;;;;1.58;1.48;;;;;;;;;;5071638;28;20048;-50
2021/06/16 11:45:06;;;;;;;4.85;3.28;;;;;;;;;;5071709;28;20024;-50
2021/06/16 11:47:33;;;;;;;3.50;2.10;;;;;;;;;;5071511;28;20035;-49
2021/06/16 11:50:02;;;;;;;2.17;1.70;;;;;;;;;;5071668;28;20060;-48
2021/06/16 11:52:28;;;;;;;1.75;1.63;;;;;;;;;;5071611;28;20020;-49
2021/06/16 11:54:55;;;;;;;5.10;1.70;;;;;;;;;;5071624;28;20064;-49
2021/06/16 11:57:26;;;;;;;4.63;2.30;;;;;;;;;;5071478;28;20395;-49
2021/06/16 11:59:53;;;;;;;3.55;2.28;;;;;;;;;;5071230;28;20032;-48
2021/06/16 12:02:23;;;;;;;2.22;1.83;;;;;;;;;;5071814;28;20050;-49
2021/06/16 12:04:49;;;;;;;3.42;2.22;;;;;;;;;;5071234;28;20040;-50
2021/06/16 12:07:21;;;;;;;4.70;1.85;;;;;;;;;;5072377;28;20032;-50
2021/06/16 12:09:49;;;;;;;1.42;1.25;;;;;;;;;;5073304;28;20492;-50
2021/06/16 12:12:15;;;;;;;3.30;2.20;;;;;;;;;;5073382;28;20029;-50
2021/06/16 12:14:41;;;;;;;4.43;2.50;;;;;;;;;;5072623;28;20072;-50
2021/06/16 12:17:07;;;;;;;4.20;1.88;;;;;;;;;;5071891;28;20039;-51
2021/06/16 12:19:35;;;;;;;2.78;2.15;;;;;;;;;;5072345;28;20184;-47
2021/06/16 12:22:03;;;;;;;25.95;20.98;;;;;;;;;;5072425;28;20024;-47
2021/06/16 12:24:29;;;;;;;64.55;57.88;;;;;;;;;;5072433;28;20097;-49
2021/06/16 12:26:56;;;;;;;31.77;20.85;;;;;;;;;;5072519;28;20438;-47
2021/06/16 12:29:22;;;;;;;28.23;19.00;;;;;;;;;;5072514;28;20033;-43
2021/06/16 12:31:51;;;;;;;37.50;28.10;;;;;;;;;;5072972;28;20035;-47
2021/06/16 12:37:09;;;;;;;31.92;24.25;;;;;;;;;;5073126;28;20397;-47
2021/06/16 12:39:36;;;;;;;132.95;96.28;;;;;;;;;;5072839;28;20021;-46
2021/06/16 12:42:06;;;;;;;44.38;30.67;;;;;;;;;;5072707;28;20104;-45
2021/06/16 12:44:39;;;;;;;32.92;23.65;;;;;;;;;;5072665;28;20032;-44
2021/06/16 12:47:11;;;;;;;362.60;275.70;;;;;;;;;;5071960;28;20149;-48
2021/06/16 12:49:38;;;;;;;55.50;38.05;;;;;;;;;;5072518;28;20443;-46
2021/06/16 12:52:05;;;;;;;9.43;6.53;;;;;;;;;;5072598;28;20020;-48
2021/06/16 12:54:33;;;;;;;20.58;15.05;;;;;;;;;;5070840;28;20422;-46
2021/06/16 12:57:19;;;;;;;5.00;3.72;;;;;;;;;;5072243;28;20020;-47
2021/06/16 12:59:47;;;;;;;4.35;3.78;;;;;;;;;;5071305;28;20021;-46
2021/06/16 13:02:14;;;;;;;4.28;2.15;;;;;;;;;;5072103;28;20441;-47
2021/06/16 13:04:46;;;;;;;9.35;2.95;;;;;;;;;;5072102;28;20101;-47
2021/06/16 13:07:12;;;;;;;8.55;5.78;;;;;;;;;;5071792;28;20016;-48
2021/06/16 13:09:38;;;;;;;4.82;3.40;;;;;;;;;;5071725;28;20086;-46
2021/06/16 13:12:05;;;;;;;3.50;2.20;;;;;;;;;;5071991;28;20468;-46
2021/06/16 13:14:41;;;;;;;13.82;8.98;;;;;;;;;;5071540;28;20182;-48
2021/06/16 13:17:09;;;;;;;7.65;3.83;;;;;;;;;;5072034;28;20198;-47
2021/06/16 13:19:53;;;;;;;25.02;17.48;;;;;;;;;;5069491;28;20048;-49
2021/06/16 13:22:32;;;;;;;9.13;6.03;;;;;;;;;;5070340;28;20528;-50
2021/06/16 13:25:00;;;;;;;11.57;8.48;;;;;;;;;;5072042;28;20038;-51
2021/06/16 13:27:26;;;;;;;38.90;28.48;;;;;;;;;;5071772;28;20016;-51
2021/06/16 13:30:04;;;;;;;13.75;10.52;;;;;;;;;;5071810;28;20427;-44
2021/06/16 13:32:49;;;;;;;155.45;107.97;;;;;;;;;;5069282;28;20392;-44
2021/06/16 13:35:15;;;;;;;105.43;72.57;;;;;;;;;;5069985;28;20012;-45
2021/06/16 13:37:41;;;;;;;132.18;79.15;;;;;;;;;;5074812;28;20027;-47
2021/06/16 13:40:08;;;;;;;194.68;119.97;;;;;;;;;;5092351;28;20110;-48
2021/06/16 13:42:34;;;;;;;96.53;56.15;;;;;;;;;;5092300;28;20032;-50
2021/06/16 13:45:00;;;;;;;244.10;146.90;;;;;;;;;;5092295;28;20024;-45
2021/06/16 13:47:26;;;;;;;322.58;221.55;;;;;;;;;;5092275;28;20062;-48
2021/06/16 13:49:52;;;;;;;333.67;219.98;;;;;;;;;;5092223;28;20040;-46
2021/06/16 13:52:20;;;;;;;329.05;218.55;;;;;;;;;;5092162;28;20028;-51
2021/06/16 13:54:47;;;;;;;184.98;108.97;;;;;;;;;;5092543;28;20400;-50
2021/06/16 13:57:13;;;;;;;95.13;51.13;;;;;;;;;;5092224;28;20483;-49
2021/06/16 13:59:40;;;;;;;72.80;38.67;;;;;;;;;;5095665;28;20089;-46
2021/06/16 14:02:06;;;;;;;124.53;82.43;;;;;;;;;;5096015;28;20016;-51
2021/06/16 14:04:32;;;;;;;19.55;12.68;;;;;;;;;;5095818;28;20043;-50
2021/06/16 14:06:58;;;;;;;65.35;38.78;;;;;;;;;;5094490;28;20081;-53
2021/06/16 14:09:24;;;;;;;35.15;19.65;;;;;;;;;;5095208;28;20032;-50
2021/06/16 14:11:51;;;;;;;50.40;32.05;;;;;;;;;;5094494;28;20031;-45
2021/06/16 14:14:17;;;;;;;97.95;68.55;;;;;;;;;;5095471;28;20127;-45
2021/06/16 14:16:43;;;;;;;75.35;48.88;;;;;;;;;;5095400;28;20399;-48
2021/06/16 14:19:09;;;;;;;37.65;23.27;;;;;;;;;;5095400;28;20116;-44
2021/06/16 14:21:35;;;;;;;25.60;13.50;;;;;;;;;;5095205;28;20024;-45
2021/06/16 14:24:01;;;;;;;4.82;3.53;;;;;;;;;;5095435;28;20512;-46
2021/06/16 14:26:27;;;;;;;26.58;8.98;;;;;;;;;;5095361;28;20391;-48
2021/06/16 14:28:55;;;;;;;12.18;4.40;;;;;;;;;;5095334;28;20040;-46
2021/06/16 14:31:21;;;;;;;22.30;9.00;;;;;;;;;;5095120;28;20024;-46
2021/06/16 14:33:47;;;;;;;294.92;233.35;;;;;;;;;;5095085;28;20024;-48
2021/06/16 14:36:13;;;;;;;102.45;63.53;;;;;;;;;;5094892;28;20020;-47
2021/06/16 14:38:39;;;;;;;176.10;122.40;;;;;;;;;;5094624;28;20075;-49
2021/06/16 14:41:09;;;;;;;214.50;159.98;;;;;;;;;;5093647;28;20373;-48